createdAt,value
2018-05-29T00:01:10.014Z,21.40
2018-05-29T00:03:36.290Z,21.30
2018-05-29T00:06:02.547Z,21.30
2018-05-29T00:08:28.888Z,21.30
2018-05-29T00:10:55.121Z,21.30
2018-05-29T00:13:21.609Z,21.10
2018-05-29T00:15:48.581Z,21.00
2018-05-29T00:18:14.849Z,21.00
2018-05-29T00:20:41.068Z,21.00
2018-05-29T00:23:07.326Z,21.00
2018-05-29T00:25:33.577Z,20.90
2018-05-29T00:28:00.566Z,20.70
2018-05-29T00:30:26.873Z,20.70
2018-05-29T00:32:53.851Z,20.60
2018-05-29T00:35:20.094Z,20.60
2018-05-29T00:37:46.307Z,20.50
2018-05-29T00:40:12.561Z,20.40
2018-05-29T00:42:38.792Z,20.40
2018-05-29T00:45:05.050Z,20.50
2018-05-29T00:47:31.295Z,20.30
2018-05-29T00:49:58.301Z,20.30
2018-05-29T00:52:24.550Z,20.20
2018-05-29T00:55:03.740Z,20.10
2018-05-29T00:57:30.017Z,20.10
2018-05-29T00:59:56.370Z,20.00
2018-05-29T01:02:22.610Z,19.90
2018-05-29T01:04:49.606Z,19.80
2018-05-29T01:07:15.852Z,19.80
2018-05-29T01:09:44.970Z,19.80
2018-05-29T01:12:11.970Z,19.80
2018-05-29T01:14:38.222Z,19.80
2018-05-29T01:17:05.481Z,19.90
2018-05-29T01:19:31.772Z,19.80
2018-05-29T01:21:58.011Z,19.80
2018-05-29T01:24:24.232Z,19.80
2018-05-29T01:26:50.622Z,19.70
2018-05-29T01:29:17.266Z,19.70
2018-05-29T01:31:43.509Z,19.60
2018-05-29T01:34:09.790Z,19.70
2018-05-29T01:36:36.038Z,19.60
2018-05-29T01:39:02.322Z,19.60
2018-05-29T01:41:28.617Z,19.50
2018-05-29T01:43:54.850Z,19.50
2018-05-29T01:46:21.873Z,19.50
2018-05-29T01:48:48.132Z,19.50
2018-05-29T01:51:15.136Z,19.50
2018-05-29T01:53:41.442Z,19.40
2018-05-29T01:56:07.769Z,19.40
2018-05-29T01:58:34.730Z,19.40
2018-05-29T02:01:00.974Z,19.40
2018-05-29T02:03:27.219Z,19.40
2018-05-29T02:05:53.479Z,19.40
2018-05-29T02:08:19.741Z,19.30
2018-05-29T02:10:46.014Z,19.40
2018-05-29T02:13:12.277Z,19.40
2018-05-29T02:15:38.562Z,19.40
2018-05-29T02:18:04.805Z,19.40
2018-05-29T02:20:31.050Z,19.30
2018-05-29T02:22:57.322Z,19.30
2018-05-29T02:25:48.011Z,19.20
2018-05-29T02:28:14.343Z,19.10
2018-05-29T02:30:40.687Z,19.10
2018-05-29T02:33:07.796Z,19.00
2018-05-29T02:35:34.182Z,19.00
2018-05-29T02:38:00.492Z,18.90
2018-05-29T02:40:26.772Z,18.90
2018-05-29T02:42:53.051Z,18.90
2018-05-29T02:45:19.318Z,18.80
2018-05-29T02:47:45.611Z,18.80
2018-05-29T02:50:11.870Z,18.60
2018-05-29T02:52:38.904Z,18.70
2018-05-29T02:55:05.920Z,18.60
2018-05-29T02:57:32.250Z,18.70
2018-05-29T02:59:58.495Z,18.70
2018-05-29T03:02:25.561Z,18.60
2018-05-29T03:04:52.623Z,18.60
2018-05-29T03:07:18.940Z,18.60
2018-05-29T03:09:45.211Z,18.60
2018-05-29T03:12:11.488Z,18.50
2018-05-29T03:14:37.778Z,18.50
2018-05-29T03:17:04.131Z,18.50
2018-05-29T03:19:30.424Z,18.50
2018-05-29T03:21:57.523Z,18.50
2018-05-29T03:24:23.911Z,18.50
2018-05-29T03:26:50.943Z,18.40
2018-05-29T03:29:17.266Z,18.40
2018-05-29T03:31:43.522Z,18.40
2018-05-29T03:34:09.944Z,18.30
2018-05-29T03:36:36.247Z,18.30
2018-05-29T03:39:02.608Z,18.40
2018-05-29T03:41:29.615Z,18.30
2018-05-29T03:43:55.899Z,18.40
2018-05-29T03:46:22.192Z,18.30
2018-05-29T03:48:48.484Z,18.30
2018-05-29T03:51:14.810Z,18.40
2018-05-29T03:53:41.124Z,18.40
2018-05-29T03:56:07.484Z,18.50
2018-05-29T03:58:33.808Z,18.50
2018-05-29T04:01:00.805Z,18.60
2018-05-29T04:03:27.070Z,18.60
2018-05-29T04:05:54.082Z,18.60
2018-05-29T04:08:20.391Z,18.60
2018-05-29T04:10:46.699Z,18.50
2018-05-29T04:13:14.748Z,18.50
2018-05-29T04:15:40.995Z,18.50
2018-05-29T04:18:08.016Z,18.60
2018-05-29T04:20:34.299Z,18.60
2018-05-29T04:23:00.572Z,18.70
2018-05-29T04:25:27.644Z,18.70
2018-05-29T04:27:53.914Z,18.60
2018-05-29T04:30:20.387Z,18.70
2018-05-29T04:32:46.650Z,18.80
2018-05-29T04:35:13.809Z,18.90
2018-05-29T04:37:40.136Z,18.90
2018-05-29T04:40:07.183Z,18.90
2018-05-29T04:42:34.190Z,18.80
2018-05-29T04:45:00.462Z,18.80
2018-05-29T04:47:27.455Z,19.20
2018-05-29T04:49:54.012Z,19.20
2018-05-29T04:52:20.272Z,19.30
2018-05-29T04:54:47.356Z,19.30
2018-05-29T04:57:13.652Z,19.30
2018-05-29T04:59:39.956Z,19.40
2018-05-29T05:02:06.236Z,19.40
2018-05-29T05:04:32.521Z,19.60
2018-05-29T05:06:58.781Z,19.60
2018-05-29T05:09:25.140Z,19.70
2018-05-29T05:11:51.399Z,19.60
2018-05-29T05:14:17.723Z,19.80
2018-05-29T05:16:43.989Z,19.90
2018-05-29T05:19:10.320Z,20.00
2018-05-29T05:21:36.579Z,20.10
2018-05-29T05:24:03.058Z,20.40
2018-05-29T05:26:29.331Z,20.50
2018-05-29T05:28:55.681Z,20.80
2018-05-29T05:31:22.694Z,21.10
2018-05-29T05:33:48.986Z,21.00
2018-05-29T05:36:15.281Z,21.20
2018-05-29T05:38:41.557Z,21.30
2018-05-29T05:41:07.859Z,21.40
2018-05-29T05:43:34.593Z,21.60
2018-05-29T05:46:00.924Z,21.70
2018-05-29T05:48:27.199Z,21.80
2018-05-29T05:50:53.516Z,21.90
2018-05-29T05:53:19.775Z,21.90
2018-05-29T05:55:46.107Z,22.00
2018-05-29T05:58:12.431Z,22.10
2018-05-29T06:00:39.171Z,22.20
2018-05-29T06:03:05.464Z,22.30
2018-05-29T06:05:31.743Z,22.40
2018-05-29T06:07:58.028Z,22.50
2018-05-29T06:10:24.314Z,22.50
2018-05-29T06:12:50.614Z,22.50
2018-05-29T06:15:16.899Z,22.60
2018-05-29T06:17:43.170Z,22.70
2018-05-29T06:20:09.511Z,22.80
2018-05-29T06:22:35.799Z,22.80
2018-05-29T06:25:02.135Z,22.80
2018-05-29T06:27:28.431Z,23.20
2018-05-29T06:29:54.722Z,23.70
2018-05-29T06:32:21.066Z,24.00
2018-05-29T06:34:47.439Z,23.80
2018-05-29T06:37:14.170Z,23.70
2018-05-29T06:39:41.012Z,23.60
2018-05-29T06:42:08.001Z,23.50
2018-05-29T06:44:34.611Z,23.40
2018-05-29T06:47:00.980Z,23.30
2018-05-29T06:49:28.022Z,23.30
2018-05-29T06:51:55.099Z,23.30
2018-05-29T06:54:21.708Z,23.40
2018-05-29T06:56:48.327Z,23.40
2018-05-29T06:59:14.601Z,23.40
2018-05-29T07:01:41.044Z,23.50
2018-05-29T07:04:08.145Z,23.60
2018-05-29T07:06:34.427Z,23.50
2018-05-29T07:09:00.694Z,23.60
2018-05-29T07:11:26.982Z,23.60
2018-05-29T07:13:53.247Z,23.70
2018-05-29T07:16:19.638Z,23.70
2018-05-29T07:18:45.899Z,23.80
2018-05-29T07:21:13.355Z,23.90
2018-05-29T07:23:39.614Z,23.80
2018-05-29T07:26:05.908Z,24.00
2018-05-29T07:28:32.178Z,23.90
2018-05-29T07:30:58.446Z,24.10
2018-05-29T07:33:24.710Z,24.20
2018-05-29T07:35:51.027Z,24.50
2018-05-29T07:38:17.289Z,24.50
2018-05-29T07:40:44.027Z,24.50
2018-05-29T07:43:10.290Z,24.50
2018-05-29T07:45:36.562Z,24.50
2018-05-29T07:48:02.904Z,24.50
2018-05-29T07:50:29.187Z,24.60
2018-05-29T07:52:55.618Z,24.60
2018-05-29T07:55:22.115Z,24.70
2018-05-29T07:57:48.489Z,24.80
2018-05-29T08:00:14.784Z,24.90
2018-05-29T08:02:41.077Z,25.10
2018-05-29T08:05:07.579Z,25.30
2018-05-29T08:07:33.863Z,25.60
2018-05-29T08:10:00.128Z,25.80
2018-05-29T08:12:26.496Z,25.80
2018-05-29T08:14:53.091Z,25.80
2018-05-29T08:17:19.376Z,25.90
2018-05-29T08:19:45.649Z,26.00
2018-05-29T08:22:11.935Z,26.30
2018-05-29T08:24:38.211Z,26.40
2018-05-29T08:27:04.539Z,26.40
2018-05-29T08:29:31.543Z,26.10
2018-05-29T08:31:58.183Z,26.10
2018-05-29T08:34:25.216Z,26.60
2018-05-29T08:36:51.485Z,26.60
2018-05-29T08:39:17.808Z,26.90
2018-05-29T08:41:44.095Z,27.00
2018-05-29T08:44:11.090Z,26.90
2018-05-29T08:46:37.367Z,26.90
2018-05-29T08:49:03.647Z,27.20
2018-05-29T08:51:29.931Z,27.20
2018-05-29T08:53:56.196Z,27.40
2018-05-29T08:56:22.470Z,27.40
2018-05-29T08:58:48.750Z,27.40
2018-05-29T09:01:15.095Z,27.10
2018-05-29T09:03:41.528Z,27.20
2018-05-29T09:06:10.071Z,27.30
2018-05-29T09:08:37.994Z,27.20
2018-05-29T09:11:04.428Z,27.10
2018-05-29T09:13:30.819Z,27.30
2018-05-29T09:15:57.854Z,27.40
2018-05-29T09:18:24.171Z,27.30
2018-05-29T09:20:51.829Z,27.40
2018-05-29T09:23:18.196Z,27.50
2018-05-29T09:25:44.472Z,27.50
2018-05-29T09:28:10.767Z,27.70
2018-05-29T09:30:37.027Z,28.00
2018-05-29T09:33:04.295Z,28.10
2018-05-29T09:35:30.969Z,28.30
2018-05-29T09:37:57.535Z,28.70
2018-05-29T09:40:23.914Z,29.00
2018-05-29T09:42:50.163Z,29.10
2018-05-29T09:45:16.410Z,28.90
2018-05-29T09:47:43.079Z,28.90
2018-05-29T09:50:09.803Z,29.20
2018-05-29T09:52:36.096Z,29.50
2018-05-29T09:55:02.518Z,29.90
2018-05-29T09:57:30.114Z,30.10
2018-05-29T09:59:56.374Z,30.00
2018-05-29T10:02:22.685Z,30.00
2018-05-29T10:04:48.927Z,30.10
2018-05-29T10:07:15.226Z,29.80
2018-05-29T10:09:41.482Z,30.00
2018-05-29T10:12:08.507Z,30.40
2018-05-29T10:14:35.275Z,30.30
2018-05-29T10:17:01.539Z,30.30
2018-05-29T10:19:27.899Z,30.00
2018-05-29T10:21:55.093Z,29.60
2018-05-29T10:24:21.371Z,29.20
2018-05-29T10:26:47.742Z,29.00
2018-05-29T10:29:14.027Z,29.10
2018-05-29T10:31:41.665Z,29.20
2018-05-29T10:34:08.015Z,29.40
2018-05-29T10:36:34.440Z,29.60
2018-05-29T10:39:00.767Z,29.40
2018-05-29T10:41:27.023Z,29.50
2018-05-29T10:43:53.313Z,29.80
2018-05-29T10:46:19.605Z,29.60
2018-05-29T10:48:45.893Z,29.70
2018-05-29T10:51:13.155Z,29.80
2018-05-29T10:53:39.432Z,29.80
2018-05-29T10:56:05.754Z,30.00
2018-05-29T10:58:32.010Z,30.20
2018-05-29T11:00:58.523Z,30.00
2018-05-29T11:03:25.300Z,29.80
2018-05-29T11:05:51.583Z,29.80
2018-05-29T11:08:17.830Z,30.10
2018-05-29T11:10:44.827Z,30.70
2018-05-29T11:13:11.107Z,31.30
2018-05-29T11:15:37.383Z,31.20
2018-05-29T11:18:03.662Z,31.50
2018-05-29T11:20:30.399Z,31.70
2018-05-29T11:22:56.663Z,31.90
2018-05-29T11:25:22.926Z,32.10
2018-05-29T11:27:49.944Z,32.40
2018-05-29T11:30:16.281Z,32.40
2018-05-29T11:32:42.556Z,32.30
2018-05-29T11:35:08.864Z,32.30
2018-05-29T11:37:35.408Z,31.80
2018-05-29T11:40:01.719Z,31.80
2018-05-29T11:42:28.060Z,32.00
2018-05-29T11:44:54.290Z,32.10
2018-05-29T11:47:20.687Z,32.00
2018-05-29T11:49:47.039Z,31.90
2018-05-29T11:52:13.387Z,31.40
2018-05-29T11:54:39.633Z,31.30
2018-05-29T11:57:06.897Z,31.40
2018-05-29T11:59:33.170Z,31.40
2018-05-29T12:01:59.460Z,31.60
2018-05-29T12:04:25.723Z,31.40
2018-05-29T12:06:52.007Z,31.50
2018-05-29T12:09:18.249Z,31.70
2018-05-29T12:11:44.999Z,32.00
2018-05-29T12:14:11.244Z,32.40
2018-05-29T12:16:38.362Z,33.30
2018-05-29T12:19:04.610Z,33.30
2018-05-29T12:21:30.910Z,33.50
2018-05-29T12:23:57.152Z,33.50
2018-05-29T12:26:23.419Z,33.30
2018-05-29T12:28:50.419Z,32.90
2018-05-29T12:31:16.686Z,32.90
2018-05-29T12:33:42.930Z,33.00
2018-05-29T12:36:09.961Z,32.50
2018-05-29T12:38:36.207Z,32.50
2018-05-29T12:41:02.501Z,32.60
2018-05-29T12:43:28.754Z,32.40
2018-05-29T12:45:55.008Z,32.20
2018-05-29T12:48:21.524Z,31.80
2018-05-29T12:50:47.794Z,31.70
2018-05-29T12:53:14.091Z,31.50
2018-05-29T12:55:40.327Z,31.20
2018-05-29T12:58:06.743Z,30.80
2018-05-29T13:00:32.996Z,30.50
2018-05-29T13:02:59.274Z,30.10
2018-05-29T13:05:25.571Z,29.90
2018-05-29T13:07:52.067Z,29.60
2018-05-29T13:10:18.306Z,29.50
2018-05-29T13:12:44.647Z,29.40
2018-05-29T13:15:10.982Z,29.10
2018-05-29T13:17:37.371Z,28.80
2018-05-29T13:20:03.640Z,28.60
2018-05-29T13:22:30.729Z,28.10
2018-05-29T13:24:56.955Z,28.10
2018-05-29T13:27:23.223Z,27.50
2018-05-29T13:29:49.484Z,26.80
2018-05-29T13:32:15.755Z,26.20
2018-05-29T13:34:42.053Z,25.70
2018-05-29T13:37:09.050Z,24.70
2018-05-29T13:39:35.356Z,24.60
2018-05-29T13:42:02.361Z,23.80
2018-05-29T13:44:28.728Z,23.70
2018-05-29T13:46:55.035Z,23.30
2018-05-29T13:49:21.359Z,23.00
2018-05-29T13:51:47.794Z,22.70
2018-05-29T13:54:14.103Z,22.40
2018-05-29T13:56:40.360Z,22.10
2018-05-29T13:59:06.706Z,21.30
2018-05-29T14:01:32.954Z,20.40
2018-05-29T14:03:59.646Z,19.60
2018-05-29T14:06:26.167Z,19.10
2018-05-29T14:08:52.504Z,18.30
2018-05-29T14:11:19.148Z,18.00
2018-05-29T14:13:45.471Z,17.90
2018-05-29T14:16:12.256Z,18.10
2018-05-29T14:18:39.105Z,18.60
2018-05-29T14:21:07.000Z,18.90
2018-05-29T14:23:33.363Z,18.90
2018-05-29T14:26:01.271Z,18.90
2018-05-29T14:28:27.538Z,18.90
2018-05-29T14:30:53.799Z,19.00
2018-05-29T14:33:20.045Z,19.10
2018-05-29T14:35:47.009Z,19.30
2018-05-29T14:38:13.267Z,19.40
2018-05-29T14:40:39.686Z,19.70
2018-05-29T14:43:05.924Z,19.70
2018-05-29T14:45:32.257Z,19.70
2018-05-29T14:47:58.502Z,19.80
2018-05-29T14:50:24.804Z,19.70
2018-05-29T14:52:51.048Z,19.80
2018-05-29T14:55:17.399Z,19.80
2018-05-29T14:57:44.423Z,19.80
2018-05-29T15:00:10.828Z,19.80
2018-05-29T15:02:37.134Z,19.80
2018-05-29T15:05:03.485Z,19.80
2018-05-29T15:07:30.827Z,19.90
2018-05-29T15:09:57.113Z,20.00
2018-05-29T15:12:23.510Z,20.10
2018-05-29T15:14:49.807Z,20.30
2018-05-29T15:17:16.058Z,20.50
2018-05-29T15:19:43.087Z,21.10
2018-05-29T15:22:09.343Z,21.00
2018-05-29T15:24:35.603Z,21.40
2018-05-29T15:27:02.070Z,21.90
2018-05-29T15:29:34.982Z,22.90
2018-05-29T15:32:01.984Z,23.30
2018-05-29T15:34:29.035Z,23.30
2018-05-29T15:36:55.296Z,23.80
2018-05-29T15:39:21.538Z,24.30
2018-05-29T15:41:47.826Z,24.70
2018-05-29T15:44:14.084Z,24.70
2018-05-29T15:46:40.528Z,24.70
2018-05-29T15:49:06.786Z,24.60
2018-05-29T15:51:33.092Z,24.50
2018-05-29T15:53:59.853Z,24.00
2018-05-29T15:56:26.156Z,23.40
2018-05-29T15:58:52.415Z,23.10
2018-05-29T16:01:18.731Z,22.90
2018-05-29T16:03:45.003Z,22.60
2018-05-29T16:06:11.335Z,22.60
2018-05-29T16:08:37.632Z,22.60
2018-05-29T16:11:04.664Z,22.20
2018-05-29T16:13:31.667Z,22.00
2018-05-29T16:15:58.056Z,21.90
2018-05-29T16:18:24.398Z,21.90
2018-05-29T16:20:51.392Z,22.00
2018-05-29T16:23:17.691Z,22.00
2018-05-29T16:25:43.950Z,21.80
2018-05-29T16:28:10.267Z,21.70
2018-05-29T16:30:36.559Z,21.60
2018-05-29T16:33:02.863Z,21.80
2018-05-29T16:35:29.761Z,21.70
2018-05-29T16:37:57.091Z,21.60
2018-05-29T16:40:24.140Z,21.40
2018-05-29T16:42:50.458Z,21.40
2018-05-29T16:45:16.723Z,21.50
2018-05-29T16:47:43.987Z,21.30
2018-05-29T16:50:10.250Z,21.30
2018-05-29T16:52:36.830Z,21.30
2018-05-29T16:55:03.791Z,21.40
2018-05-29T16:57:30.071Z,21.40
2018-05-29T16:59:58.406Z,21.50
2018-05-29T17:02:25.236Z,21.50
2018-05-29T17:04:51.599Z,21.70
2018-05-29T17:07:17.848Z,21.80
2018-05-29T17:09:44.130Z,22.00
2018-05-29T17:12:10.399Z,22.10
2018-05-29T17:14:36.687Z,22.30
2018-05-29T17:17:02.986Z,22.40
2018-05-29T17:19:29.251Z,22.80
2018-05-29T17:21:55.604Z,23.20
2018-05-29T17:24:21.817Z,23.40
2018-05-29T17:26:48.092Z,23.60
2018-05-29T17:29:14.345Z,23.90
2018-05-29T17:31:41.225Z,23.90
2018-05-29T17:34:08.494Z,24.00
2018-05-29T17:36:34.812Z,23.90
2018-05-29T17:39:01.117Z,23.80
2018-05-29T17:41:27.391Z,23.70
2018-05-29T17:43:54.051Z,23.50
2018-05-29T17:46:20.327Z,23.50
2018-05-29T17:48:47.352Z,23.30
2018-05-29T17:51:13.624Z,23.40
2018-05-29T17:53:40.707Z,23.40
2018-05-29T17:56:06.961Z,23.40
2018-05-29T17:58:33.234Z,23.30
2018-05-29T18:00:59.507Z,23.40
2018-05-29T18:03:25.798Z,23.30
2018-05-29T18:05:52.052Z,23.30
2018-05-29T18:08:18.380Z,23.20
2018-05-29T18:10:44.639Z,23.10
2018-05-29T18:13:10.967Z,23.10
2018-05-29T18:15:37.947Z,23.00
2018-05-29T18:18:04.230Z,23.00
2018-05-29T18:20:31.084Z,22.80
2018-05-29T18:22:57.355Z,22.90
2018-05-29T18:25:23.903Z,22.80
2018-05-29T18:27:50.194Z,22.70
2018-05-29T18:30:16.456Z,22.60
2018-05-29T18:32:42.744Z,22.50
2018-05-29T18:35:08.996Z,22.30
2018-05-29T18:37:36.266Z,22.10
2018-05-29T18:40:02.750Z,22.10
2018-05-29T18:42:29.017Z,21.90
2018-05-29T18:44:55.294Z,21.80
2018-05-29T18:47:22.530Z,21.70
2018-05-29T18:49:49.252Z,21.60
2018-05-29T18:52:15.635Z,21.50
2018-05-29T18:54:41.983Z,21.50
2018-05-29T18:57:08.243Z,21.50
2018-05-29T18:59:34.974Z,21.50
2018-05-29T19:02:01.244Z,21.40
2018-05-29T19:04:28.096Z,21.40
2018-05-29T19:06:54.395Z,21.40
2018-05-29T19:09:20.740Z,21.30
2018-05-29T19:11:47.003Z,21.20
2018-05-29T19:14:13.279Z,21.20
2018-05-29T19:16:39.767Z,21.10
2018-05-29T19:19:06.064Z,21.10
2018-05-29T19:21:32.423Z,21.00
2018-05-29T19:23:58.713Z,21.00
2018-05-29T19:26:24.996Z,20.90
2018-05-29T19:28:51.458Z,20.90
2018-05-29T19:31:18.543Z,20.90
2018-05-29T19:33:46.901Z,20.90
2018-05-29T19:36:13.738Z,20.90
2018-05-29T19:38:40.043Z,21.00
2018-05-29T19:41:06.435Z,20.90
2018-05-29T19:43:32.745Z,20.80
2018-05-29T19:45:59.078Z,20.80
2018-05-29T19:48:26.108Z,20.60
2018-05-29T19:50:53.143Z,20.50
2018-05-29T19:53:20.343Z,20.60
2018-05-29T19:55:46.815Z,20.60
2018-05-29T19:58:13.079Z,20.70
2018-05-29T20:00:40.363Z,20.60
2018-05-29T20:03:06.634Z,20.60
2018-05-29T20:05:32.955Z,20.50
2018-05-29T20:07:59.212Z,20.50
2018-05-29T20:10:25.508Z,20.40
2018-05-29T20:12:52.152Z,20.50
2018-05-29T20:15:18.425Z,20.40
2018-05-29T20:17:45.507Z,20.40
2018-05-29T20:20:12.765Z,20.40
2018-05-29T20:22:39.072Z,20.40
2018-05-29T20:25:06.286Z,20.30
2018-05-29T20:27:33.599Z,20.30
2018-05-29T20:30:01.069Z,20.30
2018-05-29T20:32:28.004Z,20.40
2018-05-29T20:34:55.974Z,20.40
2018-05-29T20:37:23.946Z,20.40
2018-05-29T20:39:51.925Z,20.40
2018-05-29T20:42:18.627Z,20.30
2018-05-29T20:44:45.696Z,20.30
2018-05-29T20:47:13.155Z,20.20
2018-05-29T20:49:40.747Z,20.20
2018-05-29T20:52:07.468Z,20.20
2018-05-29T20:54:34.459Z,20.40
2018-05-29T20:57:00.874Z,20.40
2018-05-29T20:59:27.903Z,20.30
2018-05-29T21:01:54.219Z,20.30
2018-05-29T21:04:20.484Z,20.40
2018-05-29T21:06:47.532Z,20.20
2018-05-29T21:09:14.531Z,20.10
2018-05-29T21:11:40.831Z,20.10
2018-05-29T21:14:07.175Z,20.10
2018-05-29T21:16:33.826Z,20.10
2018-05-29T21:19:00.520Z,20.10
2018-05-29T21:21:27.904Z,20.10
2018-05-29T21:23:54.847Z,20.10
2018-05-29T21:26:22.747Z,20.20
2018-05-29T21:28:49.049Z,20.10
2018-05-29T21:31:16.656Z,19.90
2018-05-29T21:33:43.425Z,19.90
2018-05-29T21:36:09.737Z,19.90
2018-05-29T21:38:36.015Z,19.70
2018-05-29T21:41:02.571Z,19.70
2018-05-29T21:43:28.826Z,19.80
2018-05-29T21:45:55.098Z,19.60
2018-05-29T21:48:21.346Z,19.50
2018-05-29T21:50:48.356Z,19.40
2018-05-29T21:53:14.605Z,19.40
2018-05-29T21:55:40.992Z,19.40
2018-05-29T21:58:07.254Z,19.30
2018-05-29T22:00:33.555Z,19.30
2018-05-29T22:03:00.200Z,19.20
2018-05-29T22:05:26.503Z,19.30
2018-05-29T22:07:53.511Z,19.20
2018-05-29T22:10:19.971Z,19.10
2018-05-29T22:12:46.235Z,19.10
2018-05-29T22:15:12.490Z,19.00
2018-05-29T22:17:38.771Z,18.90
2018-05-29T22:20:05.767Z,19.00
2018-05-29T22:22:32.067Z,19.00
2018-05-29T22:24:58.696Z,19.00
2018-05-29T22:27:25.702Z,19.00
2018-05-29T22:29:51.952Z,19.00
2018-05-29T22:32:18.243Z,19.10
2018-05-29T22:34:44.495Z,19.10
2018-05-29T22:37:10.794Z,19.10
2018-05-29T22:39:37.094Z,19.10
2018-05-29T22:42:04.115Z,19.10
2018-05-29T22:44:30.387Z,19.10
2018-05-29T22:46:57.383Z,19.10
2018-05-29T22:49:23.667Z,19.10
2018-05-29T22:51:50.699Z,19.00
2018-05-29T22:54:16.983Z,19.00
2018-05-29T22:56:43.361Z,19.00
2018-05-29T22:59:09.611Z,19.00
2018-05-29T23:01:35.982Z,19.00
2018-05-29T23:04:02.247Z,19.00
2018-05-29T23:06:28.619Z,19.00
2018-05-29T23:08:55.002Z,19.00
2018-05-29T23:11:21.387Z,19.00
2018-05-29T23:13:48.391Z,19.00
2018-05-29T23:16:14.651Z,19.00
2018-05-29T23:18:40.911Z,19.00
2018-05-29T23:21:07.160Z,19.00
2018-05-29T23:23:33.427Z,19.00
2018-05-29T23:25:59.663Z,19.00
2018-05-29T23:28:25.927Z,19.00
2018-05-29T23:30:52.211Z,19.00
2018-05-29T23:33:18.483Z,19.00
2018-05-29T23:35:45.505Z,19.10
2018-05-29T23:38:11.767Z,19.10
2018-05-29T23:40:38.036Z,19.20
2018-05-29T23:43:04.284Z,19.10
2018-05-29T23:45:30.546Z,19.10
2018-05-29T23:47:57.544Z,19.00
2018-05-29T23:50:23.811Z,19.00
2018-05-29T23:52:50.143Z,19.00
2018-05-29T23:55:16.407Z,18.90
2018-05-29T23:57:42.666Z,18.90
